sensor_id;sensor_type;location;lat;lon;timestamp;P1;durP1;ratioP1;P2;durP2;ratioP2
60086;SDS011;45960;53.630;55.972;2022-07-06T00:00:09;8.40;;;5.80;;
60086;SDS011;45960;53.630;55.972;2022-07-06T00:01:10;9.07;;;5.45;;
60086;SDS011;45960;53.630;55.972;2022-07-06T00:02:12;10.60;;;5.38;;
60086;SDS011;45960;53.630;55.972;2022-07-06T00:03:13;12.43;;;4.90;;
60086;SDS011;45960;53.630;55.972;2022-07-06T00:04:14;9.50;;;5.47;;
60086;SDS011;45960;53.630;55.972;2022-07-06T00:05:15;12.65;;;5.55;;
60086;SDS011;45960;53.630;55.972;2022-07-06T00:06:16;9.27;;;5.35;;
60086;SDS011;45960;53.630;55.972;2022-07-06T00:07:17;13.63;;;5.40;;
60086;SDS011;45960;53.630;55.972;2022-07-06T00:08:19;9.00;;;5.50;;
60086;SDS011;45960;53.630;55.972;2022-07-06T00:09:20;12.23;;;5.20;;
60086;SDS011;45960;53.630;55.972;2022-07-06T00:10:21;12.50;;;5.70;;
60086;SDS011;45960;53.630;55.972;2022-07-06T00:11:22;9.40;;;5.30;;
60086;SDS011;45960;53.630;55.972;2022-07-06T00:12:23;9.57;;;5.00;;
60086;SDS011;45960;53.630;55.972;2022-07-06T00:13:24;9.35;;;5.47;;
60086;SDS011;45960;53.630;55.972;2022-07-06T00:14:25;9.57;;;5.47;;
60086;SDS011;45960;53.630;55.972;2022-07-06T00:15:27;10.18;;;5.13;;
60086;SDS011;45960;53.630;55.972;2022-07-06T00:16:28;10.10;;;5.60;;
60086;SDS011;45960;53.630;55.972;2022-07-06T00:17:30;10.80;;;5.20;;
60086;SDS011;45960;53.630;55.972;2022-07-06T00:18:31;14.32;;;5.25;;
60086;SDS011;45960;53.630;55.972;2022-07-06T00:19:32;8.55;;;4.95;;
60086;SDS011;45960;53.630;55.972;2022-07-06T00:20:33;9.70;;;5.80;;
60086;SDS011;45960;53.630;55.972;2022-07-06T00:21:34;11.38;;;5.72;;
60086;SDS011;45960;53.630;55.972;2022-07-06T00:22:35;7.78;;;5.10;;
60086;SDS011;45960;53.630;55.972;2022-07-06T00:23:36;12.77;;;5.20;;
60086;SDS011;45960;53.630;55.972;2022-07-06T00:24:38;9.82;;;5.00;;
60086;SDS011;45960;53.630;55.972;2022-07-06T00:25:39;8.07;;;5.65;;
60086;SDS011;45960;53.630;55.972;2022-07-06T00:26:40;15.20;;;5.72;;
60086;SDS011;45960;53.630;55.972;2022-07-06T00:27:41;13.52;;;6.07;;
60086;SDS011;45960;53.630;55.972;2022-07-06T00:28:42;17.30;;;6.03;;
60086;SDS011;45960;53.630;55.972;2022-07-06T00:29:43;15.18;;;5.65;;
60086;SDS011;45960;53.630;55.972;2022-07-06T00:30:44;15.20;;;5.90;;
60086;SDS011;45960;53.630;55.972;2022-07-06T00:31:45;16.10;;;5.55;;
60086;SDS011;45960;53.630;55.972;2022-07-06T00:32:46;11.25;;;5.20;;
60086;SDS011;45960;53.630;55.972;2022-07-06T00:33:47;8.38;;;5.38;;
60086;SDS011;45960;53.630;55.972;2022-07-06T00:34:48;8.95;;;5.40;;
60086;SDS011;45960;53.630;55.972;2022-07-06T00:35:49;7.72;;;5.18;;
60086;SDS011;45960;53.630;55.972;2022-07-06T00:36:50;7.05;;;4.88;;
60086;SDS011;45960;53.630;55.972;2022-07-06T00:37:52;15.48;;;5.40;;
60086;SDS011;45960;53.630;55.972;2022-07-06T00:38:53;13.77;;;5.20;;
60086;SDS011;45960;53.630;55.972;2022-07-06T00:39:54;9.65;;;5.18;;
60086;SDS011;45960;53.630;55.972;2022-07-06T00:40:55;14.23;;;5.68;;
60086;SDS011;45960;53.630;55.972;2022-07-06T00:41:56;11.95;;;5.50;;
60086;SDS011;45960;53.630;55.972;2022-07-06T00:42:58;10.00;;;6.00;;
60086;SDS011;45960;53.630;55.972;2022-07-06T00:43:59;14.45;;;6.30;;
60086;SDS011;45960;53.630;55.972;2022-07-06T00:45:00;11.93;;;6.38;;
60086;SDS011;45960;53.630;55.972;2022-07-06T00:46:01;13.13;;;5.78;;
60086;SDS011;45960;53.630;55.972;2022-07-06T00:47:02;11.27;;;6.05;;
60086;SDS011;45960;53.630;55.972;2022-07-06T00:48:04;8.75;;;5.22;;
60086;SDS011;45960;53.630;55.972;2022-07-06T00:49:05;10.05;;;5.15;;
60086;SDS011;45960;53.630;55.972;2022-07-06T00:50:26;12.65;;;5.60;;
60086;SDS011;45960;53.630;55.972;2022-07-06T00:51:29;8.38;;;5.25;;
60086;SDS011;45960;53.630;55.972;2022-07-06T00:52:32;10.55;;;5.25;;
60086;SDS011;45960;53.630;55.972;2022-07-06T00:53:34;8.23;;;5.32;;
60086;SDS011;45960;53.630;55.972;2022-07-06T00:54:35;10.00;;;5.10;;
60086;SDS011;45960;53.630;55.972;2022-07-06T00:55:38;11.00;;;5.88;;
60086;SDS011;45960;53.630;55.972;2022-07-06T00:56:40;11.45;;;5.00;;
60086;SDS011;45960;53.630;55.972;2022-07-06T00:57:41;11.43;;;5.10;;
60086;SDS011;45960;53.630;55.972;2022-07-06T00:58:43;9.20;;;4.95;;
60086;SDS011;45960;53.630;55.972;2022-07-06T00:59:45;7.78;;;4.78;;
60086;SDS011;45960;53.630;55.972;2022-07-06T01:00:46;9.43;;;5.05;;
60086;SDS011;45960;53.630;55.972;2022-07-06T01:01:47;11.10;;;5.43;;
60086;SDS011;45960;53.630;55.972;2022-07-06T01:02:49;6.93;;;5.03;;
60086;SDS011;45960;53.630;55.972;2022-07-06T01:03:50;13.38;;;5.50;;
60086;SDS011;45960;53.630;55.972;2022-07-06T01:04:52;8.82;;;5.13;;
60086;SDS011;45960;53.630;55.972;2022-07-06T01:05:53;10.27;;;5.10;;
60086;SDS011;45960;53.630;55.972;2022-07-06T01:06:54;17.83;;;5.32;;
60086;SDS011;45960;53.630;55.972;2022-07-06T01:07:57;9.77;;;5.25;;
60086;SDS011;45960;53.630;55.972;2022-07-06T01:08:59;8.40;;;4.72;;
60086;SDS011;45960;53.630;55.972;2022-07-06T01:10:01;7.32;;;4.10;;
60086;SDS011;45960;53.630;55.972;2022-07-06T01:11:06;12.35;;;5.07;;
60086;SDS011;45960;53.630;55.972;2022-07-06T01:12:08;11.13;;;5.13;;
60086;SDS011;45960;53.630;55.972;2022-07-06T01:13:09;10.40;;;5.15;;
60086;SDS011;45960;53.630;55.972;2022-07-06T01:14:11;10.05;;;4.80;;
60086;SDS011;45960;53.630;55.972;2022-07-06T01:15:14;8.68;;;4.22;;
60086;SDS011;45960;53.630;55.972;2022-07-06T01:16:16;7.15;;;4.20;;
60086;SDS011;45960;53.630;55.972;2022-07-06T01:17:18;7.50;;;4.22;;
60086;SDS011;45960;53.630;55.972;2022-07-06T01:18:19;9.90;;;4.50;;
60086;SDS011;45960;53.630;55.972;2022-07-06T01:19:20;7.22;;;4.40;;
60086;SDS011;45960;53.630;55.972;2022-07-06T01:20:22;7.57;;;3.88;;
60086;SDS011;45960;53.630;55.972;2022-07-06T01:21:25;10.30;;;4.82;;
60086;SDS011;45960;53.630;55.972;2022-07-06T01:22:26;8.43;;;4.55;;
60086;SDS011;45960;53.630;55.972;2022-07-06T01:23:27;7.28;;;4.43;;
60086;SDS011;45960;53.630;55.972;2022-07-06T01:24:28;6.47;;;4.28;;
60086;SDS011;45960;53.630;55.972;2022-07-06T01:25:29;10.65;;;4.13;;
60086;SDS011;45960;53.630;55.972;2022-07-06T01:26:30;8.68;;;4.32;;
60086;SDS011;45960;53.630;55.972;2022-07-06T01:27:33;6.13;;;4.15;;
60086;SDS011;45960;53.630;55.972;2022-07-06T01:28:37;6.80;;;3.85;;
60086;SDS011;45960;53.630;55.972;2022-07-06T01:29:38;7.47;;;3.85;;
60086;SDS011;45960;53.630;55.972;2022-07-06T01:30:39;7.40;;;3.97;;
60086;SDS011;45960;53.630;55.972;2022-07-06T01:31:50;12.82;;;5.00;;
60086;SDS011;45960;53.630;55.972;2022-07-06T01:32:51;11.05;;;4.25;;
60086;SDS011;45960;53.630;55.972;2022-07-06T01:33:54;7.07;;;3.80;;
60086;SDS011;45960;53.630;55.972;2022-07-06T01:34:57;6.32;;;3.78;;
60086;SDS011;45960;53.630;55.972;2022-07-06T01:35:58;7.35;;;3.78;;
60086;SDS011;45960;53.630;55.972;2022-07-06T01:36:59;6.70;;;3.38;;
60086;SDS011;45960;53.630;55.972;2022-07-06T01:38:00;5.00;;;3.60;;
60086;SDS011;45960;53.630;55.972;2022-07-06T01:39:01;6.32;;;3.50;;
60086;SDS011;45960;53.630;55.972;2022-07-06T01:40:04;8.00;;;3.38;;
60086;SDS011;45960;53.630;55.972;2022-07-06T01:41:07;5.95;;;3.75;;
60086;SDS011;45960;53.630;55.972;2022-07-06T01:42:10;7.30;;;3.80;;
60086;SDS011;45960;53.630;55.972;2022-07-06T01:43:11;8.38;;;3.58;;
60086;SDS011;45960;53.630;55.972;2022-07-06T01:44:12;4.60;;;3.20;;
60086;SDS011;45960;53.630;55.972;2022-07-06T01:45:14;8.05;;;3.70;;
60086;SDS011;45960;53.630;55.972;2022-07-06T01:46:16;13.20;;;3.42;;
60086;SDS011;45960;53.630;55.972;2022-07-06T01:47:17;8.52;;;3.90;;
60086;SDS011;45960;53.630;55.972;2022-07-06T01:48:18;11.73;;;3.70;;
60086;SDS011;45960;53.630;55.972;2022-07-06T01:49:19;5.95;;;3.53;;
60086;SDS011;45960;53.630;55.972;2022-07-06T01:50:20;6.18;;;3.63;;
60086;SDS011;45960;53.630;55.972;2022-07-06T01:51:22;5.97;;;3.58;;
60086;SDS011;45960;53.630;55.972;2022-07-06T01:52:23;9.13;;;3.55;;
60086;SDS011;45960;53.630;55.972;2022-07-06T01:53:24;7.43;;;3.45;;
60086;SDS011;45960;53.630;55.972;2022-07-06T01:54:25;4.47;;;3.33;;
60086;SDS011;45960;53.630;55.972;2022-07-06T01:55:26;9.13;;;3.70;;
60086;SDS011;45960;53.630;55.972;2022-07-06T01:56:27;6.72;;;3.55;;
60086;SDS011;45960;53.630;55.972;2022-07-06T01:57:33;7.93;;;3.72;;
60086;SDS011;45960;53.630;55.972;2022-07-06T01:58:34;11.07;;;4.03;;
60086;SDS011;45960;53.630;55.972;2022-07-06T01:59:36;8.25;;;3.90;;
60086;SDS011;45960;53.630;55.972;2022-07-06T02:00:37;5.57;;;4.68;;
60086;SDS011;45960;53.630;55.972;2022-07-06T02:01:38;8.18;;;4.25;;
60086;SDS011;45960;53.630;55.972;2022-07-06T02:02:39;12.07;;;4.72;;
60086;SDS011;45960;53.630;55.972;2022-07-06T02:03:45;10.82;;;4.32;;
60086;SDS011;45960;53.630;55.972;2022-07-06T02:04:46;7.53;;;4.50;;
60086;SDS011;45960;53.630;55.972;2022-07-06T02:05:47;16.15;;;4.20;;
60086;SDS011;45960;53.630;55.972;2022-07-06T02:06:49;10.10;;;4.15;;
60086;SDS011;45960;53.630;55.972;2022-07-06T02:07:50;29.02;;;5.32;;
60086;SDS011;45960;53.630;55.972;2022-07-06T02:08:51;11.18;;;5.47;;
60086;SDS011;45960;53.630;55.972;2022-07-06T02:09:54;8.70;;;4.55;;
60086;SDS011;45960;53.630;55.972;2022-07-06T02:10:57;10.65;;;4.97;;
60086;SDS011;45960;53.630;55.972;2022-07-06T02:11:58;7.93;;;4.65;;
60086;SDS011;45960;53.630;55.972;2022-07-06T02:13:00;12.45;;;5.40;;
60086;SDS011;45960;53.630;55.972;2022-07-06T02:14:01;14.15;;;5.00;;
60086;SDS011;45960;53.630;55.972;2022-07-06T02:15:02;15.85;;;4.80;;
60086;SDS011;45960;53.630;55.972;2022-07-06T02:16:04;8.38;;;4.80;;
60086;SDS011;45960;53.630;55.972;2022-07-06T02:17:05;12.13;;;4.75;;
60086;SDS011;45960;53.630;55.972;2022-07-06T02:18:08;9.15;;;4.93;;
60086;SDS011;45960;53.630;55.972;2022-07-06T02:19:09;13.18;;;4.82;;
60086;SDS011;45960;53.630;55.972;2022-07-06T02:20:11;8.32;;;5.32;;
60086;SDS011;45960;53.630;55.972;2022-07-06T02:21:12;9.18;;;4.95;;
60086;SDS011;45960;53.630;55.972;2022-07-06T02:22:13;11.75;;;5.43;;
60086;SDS011;45960;53.630;55.972;2022-07-06T02:23:15;9.27;;;4.28;;
60086;SDS011;45960;53.630;55.972;2022-07-06T02:24:16;7.95;;;5.03;;
60086;SDS011;45960;53.630;55.972;2022-07-06T02:25:18;11.93;;;4.68;;
60086;SDS011;45960;53.630;55.972;2022-07-06T02:26:19;11.98;;;4.80;;
60086;SDS011;45960;53.630;55.972;2022-07-06T02:27:21;6.57;;;4.43;;
60086;SDS011;45960;53.630;55.972;2022-07-06T02:28:22;7.63;;;4.68;;
60086;SDS011;45960;53.630;55.972;2022-07-06T02:29:23;9.18;;;5.00;;
60086;SDS011;45960;53.630;55.972;2022-07-06T02:30:26;11.45;;;4.78;;
60086;SDS011;45960;53.630;55.972;2022-07-06T02:31:28;7.55;;;4.97;;
60086;SDS011;45960;53.630;55.972;2022-07-06T02:32:29;11.13;;;4.72;;
60086;SDS011;45960;53.630;55.972;2022-07-06T02:33:30;9.57;;;5.10;;
60086;SDS011;45960;53.630;55.972;2022-07-06T02:34:31;7.03;;;5.22;;
60086;SDS011;45960;53.630;55.972;2022-07-06T02:35:32;11.25;;;5.43;;
60086;SDS011;45960;53.630;55.972;2022-07-06T02:36:34;14.40;;;5.70;;
60086;SDS011;45960;53.630;55.972;2022-07-06T02:37:35;10.05;;;5.07;;
60086;SDS011;45960;53.630;55.972;2022-07-06T02:38:36;18.83;;;5.72;;
60086;SDS011;45960;53.630;55.972;2022-07-06T02:39:37;11.02;;;5.68;;
60086;SDS011;45960;53.630;55.972;2022-07-06T02:40:39;11.90;;;6.18;;
60086;SDS011;45960;53.630;55.972;2022-07-06T02:41:40;13.77;;;6.13;;
60086;SDS011;45960;53.630;55.972;2022-07-06T02:42:41;14.88;;;6.50;;
60086;SDS011;45960;53.630;55.972;2022-07-06T02:43:43;14.35;;;7.07;;
60086;SDS011;45960;53.630;55.972;2022-07-06T02:44:44;14.98;;;6.90;;
60086;SDS011;45960;53.630;55.972;2022-07-06T02:45:45;13.70;;;7.22;;
60086;SDS011;45960;53.630;55.972;2022-07-06T02:46:47;11.82;;;7.00;;
60086;SDS011;45960;53.630;55.972;2022-07-06T02:47:48;20.42;;;7.78;;
60086;SDS011;45960;53.630;55.972;2022-07-06T02:48:49;22.23;;;7.88;;
60086;SDS011;45960;53.630;55.972;2022-07-06T02:49:52;13.68;;;6.50;;
60086;SDS011;45960;53.630;55.972;2022-07-06T02:50:53;20.65;;;6.13;;
60086;SDS011;45960;53.630;55.972;2022-07-06T02:51:55;17.23;;;6.47;;
60086;SDS011;45960;53.630;55.972;2022-07-06T02:52:56;18.80;;;7.18;;
60086;SDS011;45960;53.630;55.972;2022-07-06T02:53:59;21.73;;;8.27;;
60086;SDS011;45960;53.630;55.972;2022-07-06T02:55:00;19.10;;;8.13;;
60086;SDS011;45960;53.630;55.972;2022-07-06T02:56:01;20.27;;;8.98;;
60086;SDS011;45960;53.630;55.972;2022-07-06T02:57:03;17.50;;;9.18;;
60086;SDS011;45960;53.630;55.972;2022-07-06T02:58:05;22.25;;;9.55;;
60086;SDS011;45960;53.630;55.972;2022-07-06T02:59:06;17.50;;;8.50;;
60086;SDS011;45960;53.630;55.972;2022-07-06T03:00:08;22.13;;;9.52;;
60086;SDS011;45960;53.630;55.972;2022-07-06T03:01:10;19.48;;;11.38;;
60086;SDS011;45960;53.630;55.972;2022-07-06T03:02:11;23.30;;;11.05;;
60086;SDS011;45960;53.630;55.972;2022-07-06T03:03:13;22.65;;;11.02;;
60086;SDS011;45960;53.630;55.972;2022-07-06T03:04:14;27.55;;;11.30;;
60086;SDS011;45960;53.630;55.972;2022-07-06T03:05:15;28.38;;;11.68;;
60086;SDS011;45960;53.630;55.972;2022-07-06T03:06:16;26.42;;;11.85;;
60086;SDS011;45960;53.630;55.972;2022-07-06T03:07:18;25.02;;;11.48;;
60086;SDS011;45960;53.630;55.972;2022-07-06T03:08:19;26.80;;;11.77;;
60086;SDS011;45960;53.630;55.972;2022-07-06T03:09:20;28.20;;;13.50;;
60086;SDS011;45960;53.630;55.972;2022-07-06T03:10:22;26.35;;;12.15;;
60086;SDS011;45960;53.630;55.972;2022-07-06T03:11:23;31.05;;;14.52;;
60086;SDS011;45960;53.630;55.972;2022-07-06T03:12:24;24.13;;;11.25;;
60086;SDS011;45960;53.630;55.972;2022-07-06T03:13:25;24.80;;;10.63;;
60086;SDS011;45960;53.630;55.972;2022-07-06T03:14:28;21.95;;;9.55;;
60086;SDS011;45960;53.630;55.972;2022-07-06T03:15:29;13.68;;;9.05;;
60086;SDS011;45960;53.630;55.972;2022-07-06T03:16:30;17.15;;;9.38;;
60086;SDS011;45960;53.630;55.972;2022-07-06T03:17:31;16.33;;;9.52;;
60086;SDS011;45960;53.630;55.972;2022-07-06T03:18:32;20.08;;;9.48;;
60086;SDS011;45960;53.630;55.972;2022-07-06T03:19:34;20.23;;;10.90;;
60086;SDS011;45960;53.630;55.972;2022-07-06T03:20:35;28.10;;;10.68;;
60086;SDS011;45960;53.630;55.972;2022-07-06T03:21:36;21.75;;;11.57;;
60086;SDS011;45960;53.630;55.972;2022-07-06T03:22:37;24.08;;;11.48;;
60086;SDS011;45960;53.630;55.972;2022-07-06T03:23:39;23.05;;;11.93;;
60086;SDS011;45960;53.630;55.972;2022-07-06T03:24:40;27.17;;;13.85;;
60086;SDS011;45960;53.630;55.972;2022-07-06T03:25:42;24.75;;;13.60;;
60086;SDS011;45960;53.630;55.972;2022-07-06T03:26:44;36.40;;;13.77;;
60086;SDS011;45960;53.630;55.972;2022-07-06T03:27:47;28.67;;;13.98;;
60086;SDS011;45960;53.630;55.972;2022-07-06T03:28:51;27.02;;;13.25;;
60086;SDS011;45960;53.630;55.972;2022-07-06T03:29:52;26.27;;;13.48;;
60086;SDS011;45960;53.630;55.972;2022-07-06T03:30:54;32.50;;;14.20;;
60086;SDS011;45960;53.630;55.972;2022-07-06T03:31:56;32.40;;;15.25;;
60086;SDS011;45960;53.630;55.972;2022-07-06T03:32:59;30.75;;;13.98;;
60086;SDS011;45960;53.630;55.972;2022-07-06T03:34:02;27.65;;;13.68;;
60086;SDS011;45960;53.630;55.972;2022-07-06T03:35:04;23.42;;;13.68;;
60086;SDS011;45960;53.630;55.972;2022-07-06T03:36:06;31.05;;;15.00;;
60086;SDS011;45960;53.630;55.972;2022-07-06T03:37:09;24.85;;;11.25;;
60086;SDS011;45960;53.630;55.972;2022-07-06T03:38:12;18.42;;;10.82;;
60086;SDS011;45960;53.630;55.972;2022-07-06T03:39:15;20.15;;;10.65;;
60086;SDS011;45960;53.630;55.972;2022-07-06T03:40:16;25.38;;;11.02;;
60086;SDS011;45960;53.630;55.972;2022-07-06T03:41:20;19.20;;;10.85;;
60086;SDS011;45960;53.630;55.972;2022-07-06T03:42:22;22.33;;;11.93;;
60086;SDS011;45960;53.630;55.972;2022-07-06T03:43:23;24.15;;;11.20;;
60086;SDS011;45960;53.630;55.972;2022-07-06T03:44:24;27.55;;;13.98;;
60086;SDS011;45960;53.630;55.972;2022-07-06T03:45:25;25.65;;;14.80;;
60086;SDS011;45960;53.630;55.972;2022-07-06T03:46:27;28.17;;;15.38;;
60086;SDS011;45960;53.630;55.972;2022-07-06T03:47:29;27.15;;;14.43;;
60086;SDS011;45960;53.630;55.972;2022-07-06T03:48:31;23.40;;;14.02;;
60086;SDS011;45960;53.630;55.972;2022-07-06T03:49:32;27.50;;;13.75;;
60086;SDS011;45960;53.630;55.972;2022-07-06T03:50:35;22.63;;;13.93;;
60086;SDS011;45960;53.630;55.972;2022-07-06T03:51:37;29.98;;;13.45;;
60086;SDS011;45960;53.630;55.972;2022-07-06T03:52:38;19.05;;;12.40;;
60086;SDS011;45960;53.630;55.972;2022-07-06T03:53:41;18.45;;;12.57;;
60086;SDS011;45960;53.630;55.972;2022-07-06T03:54:42;19.65;;;12.05;;
60086;SDS011;45960;53.630;55.972;2022-07-06T03:55:45;20.02;;;11.75;;
60086;SDS011;45960;53.630;55.972;2022-07-06T03:57:09;19.35;;;11.02;;
60086;SDS011;45960;53.630;55.972;2022-07-06T03:58:12;21.42;;;11.73;;
60086;SDS011;45960;53.630;55.972;2022-07-06T03:59:15;19.58;;;12.15;;
60086;SDS011;45960;53.630;55.972;2022-07-06T04:00:16;22.15;;;11.63;;
60086;SDS011;45960;53.630;55.972;2022-07-06T04:01:24;27.00;;;11.82;;
60086;SDS011;45960;53.630;55.972;2022-07-06T04:02:26;22.83;;;11.48;;
60086;SDS011;45960;53.630;55.972;2022-07-06T04:03:27;25.88;;;11.13;;
60086;SDS011;45960;53.630;55.972;2022-07-06T04:04:28;24.55;;;11.43;;
60086;SDS011;45960;53.630;55.972;2022-07-06T04:05:29;20.42;;;10.88;;
60086;SDS011;45960;53.630;55.972;2022-07-06T04:06:31;21.70;;;10.35;;
60086;SDS011;45960;53.630;55.972;2022-07-06T04:07:36;14.38;;;9.35;;
60086;SDS011;45960;53.630;55.972;2022-07-06T04:08:37;18.75;;;9.55;;
60086;SDS011;45960;53.630;55.972;2022-07-06T04:09:38;16.73;;;10.20;;
60086;SDS011;45960;53.630;55.972;2022-07-06T04:10:40;17.98;;;10.20;;
60086;SDS011;45960;53.630;55.972;2022-07-06T04:11:41;15.50;;;9.60;;
60086;SDS011;45960;53.630;55.972;2022-07-06T04:12:43;15.15;;;9.32;;
60086;SDS011;45960;53.630;55.972;2022-07-06T04:13:45;23.70;;;8.45;;
60086;SDS011;45960;53.630;55.972;2022-07-06T04:14:46;12.77;;;8.23;;
60086;SDS011;45960;53.630;55.972;2022-07-06T04:15:47;12.13;;;7.85;;
60086;SDS011;45960;53.630;55.972;2022-07-06T04:16:49;15.18;;;7.30;;
60086;SDS011;45960;53.630;55.972;2022-07-06T04:17:50;9.30;;;7.32;;
60086;SDS011;45960;53.630;55.972;2022-07-06T04:19:11;10.35;;;7.00;;
60086;SDS011;45960;53.630;55.972;2022-07-06T04:20:12;10.80;;;6.93;;
60086;SDS011;45960;53.630;55.972;2022-07-06T04:21:14;12.35;;;7.50;;
60086;SDS011;45960;53.630;55.972;2022-07-06T04:22:15;9.80;;;6.80;;
60086;SDS011;45960;53.630;55.972;2022-07-06T04:23:16;15.57;;;6.47;;
60086;SDS011;45960;53.630;55.972;2022-07-06T04:24:17;11.23;;;5.80;;
60086;SDS011;45960;53.630;55.972;2022-07-06T04:25:18;14.50;;;6.38;;
60086;SDS011;45960;53.630;55.972;2022-07-06T04:26:19;9.43;;;6.72;;
60086;SDS011;45960;53.630;55.972;2022-07-06T04:27:21;12.57;;;7.03;;
60086;SDS011;45960;53.630;55.972;2022-07-06T04:28:22;18.90;;;7.13;;
60086;SDS011;45960;53.630;55.972;2022-07-06T04:29:23;12.10;;;6.10;;
60086;SDS011;45960;53.630;55.972;2022-07-06T04:30:24;10.63;;;5.63;;
60086;SDS011;45960;53.630;55.972;2022-07-06T04:31:25;20.45;;;5.65;;
60086;SDS011;45960;53.630;55.972;2022-07-06T04:32:27;13.02;;;5.90;;
60086;SDS011;45960;53.630;55.972;2022-07-06T04:33:28;10.88;;;5.82;;
60086;SDS011;45960;53.630;55.972;2022-07-06T04:34:29;12.32;;;5.43;;
60086;SDS011;45960;53.630;55.972;2022-07-06T04:35:30;8.85;;;5.07;;
60086;SDS011;45960;53.630;55.972;2022-07-06T04:36:32;13.73;;;4.55;;
60086;SDS011;45960;53.630;55.972;2022-07-06T04:37:33;11.18;;;3.63;;
60086;SDS011;45960;53.630;55.972;2022-07-06T04:38:34;9.00;;;3.70;;
60086;SDS011;45960;53.630;55.972;2022-07-06T04:39:39;6.40;;;4.05;;
60086;SDS011;45960;53.630;55.972;2022-07-06T04:40:40;9.98;;;3.78;;
60086;SDS011;45960;53.630;55.972;2022-07-06T04:41:45;9.40;;;3.55;;
60086;SDS011;45960;53.630;55.972;2022-07-06T04:42:46;8.70;;;3.85;;
60086;SDS011;45960;53.630;55.972;2022-07-06T04:43:48;7.88;;;3.58;;
60086;SDS011;45960;53.630;55.972;2022-07-06T04:44:51;8.18;;;3.45;;
60086;SDS011;45960;53.630;55.972;2022-07-06T04:45:52;8.75;;;4.05;;
60086;SDS011;45960;53.630;55.972;2022-07-06T04:46:53;8.48;;;3.47;;
60086;SDS011;45960;53.630;55.972;2022-07-06T04:47:55;8.13;;;3.15;;
60086;SDS011;45960;53.630;55.972;2022-07-06T04:48:56;15.95;;;3.50;;
60086;SDS011;45960;53.630;55.972;2022-07-06T04:50:03;4.05;;;2.90;;
60086;SDS011;45960;53.630;55.972;2022-07-06T04:51:04;9.57;;;2.92;;
60086;SDS011;45960;53.630;55.972;2022-07-06T04:52:05;8.93;;;3.20;;
60086;SDS011;45960;53.630;55.972;2022-07-06T04:53:08;9.43;;;3.03;;
60086;SDS011;45960;53.630;55.972;2022-07-06T04:54:10;5.20;;;2.80;;
60086;SDS011;45960;53.630;55.972;2022-07-06T04:55:12;14.07;;;3.00;;
60086;SDS011;45960;53.630;55.972;2022-07-06T04:56:15;11.27;;;2.92;;
60086;SDS011;45960;53.630;55.972;2022-07-06T04:57:17;13.40;;;3.05;;
60086;SDS011;45960;53.630;55.972;2022-07-06T04:58:18;13.73;;;3.47;;
60086;SDS011;45960;53.630;55.972;2022-07-06T04:59:20;9.27;;;2.75;;
60086;SDS011;45960;53.630;55.972;2022-07-06T05:00:21;8.85;;;2.78;;
60086;SDS011;45960;53.630;55.972;2022-07-06T05:01:24;9.02;;;3.15;;
60086;SDS011;45960;53.630;55.972;2022-07-06T05:02:25;7.40;;;2.75;;
60086;SDS011;45960;53.630;55.972;2022-07-06T05:03:26;4.95;;;2.30;;
60086;SDS011;45960;53.630;55.972;2022-07-06T05:04:27;13.63;;;2.47;;
60086;SDS011;45960;53.630;55.972;2022-07-06T05:05:30;6.70;;;1.85;;
60086;SDS011;45960;53.630;55.972;2022-07-06T05:06:33;6.95;;;2.30;;
60086;SDS011;45960;53.630;55.972;2022-07-06T05:07:34;6.97;;;2.08;;
60086;SDS011;45960;53.630;55.972;2022-07-06T05:08:39;6.10;;;2.20;;
60086;SDS011;45960;53.630;55.972;2022-07-06T05:09:41;8.18;;;2.20;;
60086;SDS011;45960;53.630;55.972;2022-07-06T05:10:42;7.28;;;1.88;;
60086;SDS011;45960;53.630;55.972;2022-07-06T05:11:43;6.15;;;1.60;;
60086;SDS011;45960;53.630;55.972;2022-07-06T05:12:46;4.03;;;0.90;;
60086;SDS011;45960;53.630;55.972;2022-07-06T05:13:48;2.65;;;0.95;;
60086;SDS011;45960;53.630;55.972;2022-07-06T05:14:50;2.33;;;0.88;;
60086;SDS011;45960;53.630;55.972;2022-07-06T05:15:52;3.20;;;1.10;;
60086;SDS011;45960;53.630;55.972;2022-07-06T05:16:54;2.05;;;1.20;;
60086;SDS011;45960;53.630;55.972;2022-07-06T05:17:56;1.92;;;1.02;;
60086;SDS011;45960;53.630;55.972;2022-07-06T05:18:58;7.80;;;1.20;;
60086;SDS011;45960;53.630;55.972;2022-07-06T05:19:59;5.57;;;1.05;;
60086;SDS011;45960;53.630;55.972;2022-07-06T05:21:01;4.25;;;1.10;;
60086;SDS011;45960;53.630;55.972;2022-07-06T05:22:02;6.03;;;0.70;;
60086;SDS011;45960;53.630;55.972;2022-07-06T05:23:04;5.22;;;0.75;;
60086;SDS011;45960;53.630;55.972;2022-07-06T05:24:06;2.25;;;0.63;;
60086;SDS011;45960;53.630;55.972;2022-07-06T05:25:08;3.85;;;1.35;;
60086;SDS011;45960;53.630;55.972;2022-07-06T05:26:09;3.30;;;0.70;;
60086;SDS011;45960;53.630;55.972;2022-07-06T05:27:10;3.03;;;0.70;;
60086;SDS011;45960;53.630;55.972;2022-07-06T05:28:11;4.10;;;0.90;;
60086;SDS011;45960;53.630;55.972;2022-07-06T05:29:12;1.95;;;0.88;;
60086;SDS011;45960;53.630;55.972;2022-07-06T05:30:14;2.95;;;1.13;;
60086;SDS011;45960;53.630;55.972;2022-07-06T05:31:16;6.57;;;1.17;;
60086;SDS011;45960;53.630;55.972;2022-07-06T05:32:18;3.88;;;0.80;;
60086;SDS011;45960;53.630;55.972;2022-07-06T05:33:19;9.85;;;0.85;;
60086;SDS011;45960;53.630;55.972;2022-07-06T05:34:20;5.65;;;0.80;;
60086;SDS011;45960;53.630;55.972;2022-07-06T05:35:21;3.70;;;0.68;;
60086;SDS011;45960;53.630;55.972;2022-07-06T05:36:23;4.82;;;0.77;;
60086;SDS011;45960;53.630;55.972;2022-07-06T05:37:24;6.38;;;1.10;;
60086;SDS011;45960;53.630;55.972;2022-07-06T05:38:25;4.85;;;1.02;;
60086;SDS011;45960;53.630;55.972;2022-07-06T05:39:27;4.07;;;1.00;;
60086;SDS011;45960;53.630;55.972;2022-07-06T05:40:28;5.95;;;1.10;;
60086;SDS011;45960;53.630;55.972;2022-07-06T05:41:29;4.90;;;0.98;;
60086;SDS011;45960;53.630;55.972;2022-07-06T05:42:30;4.78;;;1.00;;
60086;SDS011;45960;53.630;55.972;2022-07-06T05:43:31;4.72;;;1.00;;
60086;SDS011;45960;53.630;55.972;2022-07-06T05:44:34;2.80;;;1.10;;
60086;SDS011;45960;53.630;55.972;2022-07-06T05:45:35;4.68;;;1.02;;
60086;SDS011;45960;53.630;55.972;2022-07-06T05:46:37;8.13;;;1.65;;
60086;SDS011;45960;53.630;55.972;2022-07-06T05:47:38;3.35;;;1.00;;
60086;SDS011;45960;53.630;55.972;2022-07-06T05:48:58;5.72;;;1.10;;
60086;SDS011;45960;53.630;55.972;2022-07-06T05:50:18;7.82;;;1.25;;
60086;SDS011;45960;53.630;55.972;2022-07-06T05:51:25;10.13;;;1.08;;
60086;SDS011;45960;53.630;55.972;2022-07-06T05:52:27;5.88;;;1.40;;
60086;SDS011;45960;53.630;55.972;2022-07-06T05:53:29;3.78;;;1.20;;
60086;SDS011;45960;53.630;55.972;2022-07-06T05:54:31;3.97;;;1.00;;
60086;SDS011;45960;53.630;55.972;2022-07-06T05:55:32;10.07;;;1.38;;
60086;SDS011;45960;53.630;55.972;2022-07-06T05:56:35;9.15;;;1.33;;
60086;SDS011;45960;53.630;55.972;2022-07-06T05:57:37;6.05;;;1.05;;
60086;SDS011;45960;53.630;55.972;2022-07-06T05:58:38;4.85;;;1.13;;
60086;SDS011;45960;53.630;55.972;2022-07-06T05:59:40;5.35;;;1.30;;
60086;SDS011;45960;53.630;55.972;2022-07-06T06:00:41;6.97;;;1.42;;
60086;SDS011;45960;53.630;55.972;2022-07-06T06:01:47;7.05;;;1.17;;
60086;SDS011;45960;53.630;55.972;2022-07-06T06:02:53;7.55;;;0.93;;
60086;SDS011;45960;53.630;55.972;2022-07-06T06:03:55;5.75;;;1.05;;